Giewont — C6YE4 — position and weather

sailwx.info

Track history (hours):
 
Tides and Currents Weather Stations Pressure Air Temp Water Temp Dewpoint Dewpoint Depression Visibility Wind Speed Wind Dir Waves Ship Positions

Giewont

Last reported at 2015-Jan-26 12:33 UTC. Time now 2015-Jan-30 18:40 UTC.
Position N 29°51' E 122°46'.

Length 229 m; draft 6.3 m.

Type: Cargo ship. MMSI: 311029800.

Date/timePositionNaut miles runAvg speedWind from/ knotsBaromVisibWave heightAir tempDewpointWater temp
2015-Jan-26 12:33N 29°51' E 122°46'1110.9
2015-Jan-26 11:31N 29°47' E 122°34'1111.4
2015-Jan-26 10:33N 29°45' E 122°22'10 9.9
2015-Jan-26 09:33N 29°51' E 122°12'2 1.4
2015-Jan-26 08:19N 29°52' E 122°13'0 0.1
2015-Jan-26 06:19N 29°53' E 122°12'4 5.4
2015-Jan-26 05:33N 29°50' E 122°09'7 5.6
2015-Jan-26 04:22N 29°47' E 122°02'0 0.0
2015-Jan-26 02:16N 29°47' E 122°02'0 0.1
2015-Jan-26 01:28N 29°47' E 122°02'0 0.1
2015-Jan-26 00:28N 29°47' E 122°02'0 0.0
2015-Jan-25 23:10N 29°47' E 122°02'0 0.1
2015-Jan-25 20:10N 29°47' E 122°02'0 0.0
2015-Jan-25 17:10N 29°47' E 122°02'0 0.2
2015-Jan-25 16:10N 29°47' E 122°02'0 0.1
2015-Jan-25 15:10N 29°47' E 122°02'0 0.0
2015-Jan-25 13:04N 29°47' E 122°02'0 0.0
2015-Jan-25 11:16N 29°47' E 122°02'0 0.0
2015-Jan-25 10:10N 29°47' E 122°02'0 0.1
2015-Jan-25 09:22N 29°47' E 122°02'0 0.2
2015-Jan-25 08:16N 29°47' E 122°02'0 0.1
2015-Jan-25 07:22N 29°48' E 122°02'0 0.0
2015-Jan-25 05:28N 29°48' E 122°02'0 0.0
2015-Jan-25 03:17N 29°47' E 122°02'0 0.1
2015-Jan-25 02:10N 29°47' E 122°02'0 0.0
2015-Jan-24 23:04N 29°47' E 122°02'0 0.0
2015-Jan-24 21:22N 29°47' E 122°02'0 0.1
2015-Jan-24 18:10N 29°48' E 122°02'0 0.0
2015-Jan-24 15:10N 29°48' E 122°02'0 0.0
2015-Jan-24 14:04N 29°48' E 122°02'0 0.0
2015-Jan-24 12:22N 29°47' E 122°02'0 0.1
2015-Jan-24 11:10N 29°47' E 122°02'0 0.1
2015-Jan-24 10:28N 29°47' E 122°02'0 0.1
2015-Jan-24 09:04N 29°47' E 122°02'1 0.4
2015-Jan-24 06:32N 29°47' E 122°03'1 1.0
2015-Jan-24 05:26N 29°46' E 122°04'0 0.0
2015-Jan-24 04:15N 29°46' E 122°04'0 0.0
2015-Jan-24 03:32N 29°46' E 122°04'0 0.0
2015-Jan-24 02:09N 29°46' E 122°04'0 0.0
2015-Jan-24 01:33N 29°46' E 122°04'0 0.0
2015-Jan-24 00:27N 29°46' E 122°04'0 0.0
2015-Jan-23 23:32N 29°46' E 122°04'0 0.0
2015-Jan-23 22:26N 29°46' E 122°04'0 0.0
2015-Jan-23 21:32N 29°46' E 122°04'0 0.0
2015-Jan-23 20:20N 29°46' E 122°04'0 0.0
2015-Jan-23 19:32N 29°46' E 122°04'0 0.0
2015-Jan-23 18:32N 29°46' E 122°04'0 0.0
2015-Jan-23 17:32N 29°46' E 122°04'0 0.0
2015-Jan-23 16:32N 29°46' E 122°04'0 0.0
2015-Jan-23 15:32N 29°46' E 122°04'0 0.0
2015-Jan-23 14:32N 29°46' E 122°04'0 0.0
2015-Jan-23 13:32N 29°46' E 122°04'0 0.0
2015-Jan-23 12:32N 29°46' E 122°04'0 0.0
2015-Jan-23 11:26N 29°46' E 122°04'0 0.0
2015-Jan-23 10:32N 29°46' E 122°04'0 0.0
2015-Jan-23 09:26N 29°46' E 122°04'0 0.0
2015-Jan-23 08:27N 29°46' E 122°04'0 0.0
2015-Jan-23 07:32N 29°46' E 122°04'0 0.0
2015-Jan-23 06:20N 29°46' E 122°04'0 0.0
2015-Jan-23 05:33N 29°46' E 122°04'0 0.0
2015-Jan-23 04:32N 29°46' E 122°04'0 0.0
2015-Jan-23 02:26N 29°46' E 122°04'0 0.0
2015-Jan-23 01:14N 29°46' E 122°04'0 0.0
2015-Jan-23 00:14N 29°46' E 122°04'0 0.0
2015-Jan-22 23:26N 29°46' E 122°04'0 0.0
2015-Jan-22 22:32N 29°46' E 122°04'0 0.0
2015-Jan-22 21:20N 29°46' E 122°04'0 0.0
2015-Jan-22 20:32N 29°46' E 122°04'0 0.0
2015-Jan-22 19:26N 29°46' E 122°04'0 0.0
2015-Jan-22 18:32N 29°46' E 122°04'0 0.0
2015-Jan-22 17:32N 29°46' E 122°04'0 0.0
2015-Jan-22 16:32N 29°46' E 122°04'0 0.0
2015-Jan-22 15:32N 29°46' E 122°04'0 0.0
2015-Jan-22 14:26N 29°46' E 122°04'0 0.0
2015-Jan-22 13:26N 29°46' E 122°04'0 0.0
2015-Jan-22 12:26N 29°46' E 122°04'0 0.0
2015-Jan-22 11:32N 29°46' E 122°04'0 0.0
2015-Jan-22 10:20N 29°46' E 122°04'0 0.0
2015-Jan-22 09:32N 29°46' E 122°04'0 0.0
2015-Jan-22 08:32N 29°46' E 122°04'0 0.0
2015-Jan-22 07:26N 29°46' E 122°04'0 0.0
2015-Jan-22 06:32N 29°46' E 122°04'0 0.0
2015-Jan-22 05:26N 29°46' E 122°04'0 0.0
2015-Jan-22 04:20N 29°46' E 122°04'0 0.0
2015-Jan-22 03:32N 29°46' E 122°04'0 0.0
2015-Jan-22 02:32N 29°46' E 122°04'0 0.0
2015-Jan-22 01:32N 29°46' E 122°04'0 0.0
2015-Jan-22 00:32N 29°46' E 122°04'0 0.0
2015-Jan-21 23:32N 29°46' E 122°04'0 0.0
2015-Jan-21 22:32N 29°46' E 122°04'0 0.0
2015-Jan-21 21:32N 29°46' E 122°04'0 0.0
2015-Jan-21 20:26N 29°46' E 122°04'0 0.0
2015-Jan-21 19:32N 29°46' E 122°04'0 0.0
2015-Jan-21 18:32N 29°46' E 122°04'0 0.0
2015-Jan-21 17:32N 29°46' E 122°04'0 0.0
2015-Jan-21 16:32N 29°46' E 122°04'0 0.0
2015-Jan-21 15:32N 29°46' E 122°04'0 0.0
2015-Jan-21 14:32N 29°46' E 122°04'0 0.0
2015-Jan-21 13:26N 29°46' E 122°04'0 0.0
2015-Jan-21 12:26N 29°46' E 122°04'0 0.0
2015-Jan-21 11:32N 29°46' E 122°04'0 0.0
2015-Jan-21 10:20N 29°46' E 122°04'0 0.0
2015-Jan-21 09:32N 29°46' E 122°04'0 0.0
2015-Jan-21 08:26N 29°46' E 122°04'0 0.0
2015-Jan-21 07:20N 29°46' E 122°04'0 0.0
2015-Jan-21 06:26N 29°46' E 122°04'0 0.0
2015-Jan-21 05:32N 29°46' E 122°04'0 0.0
2015-Jan-21 04:08N 29°46' E 122°04'0 0.0
2015-Jan-21 03:32N 29°46' E 122°04'0 0.0
2015-Jan-21 02:32N 29°46' E 122°04'0 0.0
2015-Jan-21 01:32N 29°46' E 122°04'0 0.0
2015-Jan-21 00:26N 29°46' E 122°04'0 0.0
2015-Jan-20 23:32N 29°46' E 122°04'0 0.0
2015-Jan-20 22:14N 29°46' E 122°04'0 0.0
2015-Jan-20 21:26N 29°46' E 122°04'0 0.0
2015-Jan-20 20:26N 29°46' E 122°04'0 0.0
2015-Jan-20 19:32N 29°46' E 122°04'0 0.0
2015-Jan-20 18:32N 29°46' E 122°04'0 0.0
2015-Jan-20 17:26N 29°46' E 122°04'0 0.0
2015-Jan-20 16:32N 29°46' E 122°04'0 0.0
2015-Jan-20 15:32N 29°46' E 122°04'0 0.0
2015-Jan-20 14:26N 29°46' E 122°04'0 0.0
2015-Jan-20 13:14N 29°46' E 122°04'0 0.0
2015-Jan-20 12:32N 29°46' E 122°04'0 0.0
2015-Jan-20 11:32N 29°46' E 122°04'0 0.0
2015-Jan-20 10:32N 29°46' E 122°04'0 0.0
2015-Jan-20 09:26N 29°46' E 122°04'0 0.0
2015-Jan-20 08:32N 29°46' E 122°04'0 0.0
2015-Jan-20 07:26N 29°46' E 122°04'0 0.0
2015-Jan-20 06:32N 29°46' E 122°04'0 0.0
2015-Jan-20 05:32N 29°46' E 122°04'0 0.0
2015-Jan-20 04:26N 29°46' E 122°04'0 0.0
2015-Jan-20 03:26N 29°46' E 122°04'0 0.0
2015-Jan-20 02:32N 29°46' E 122°04'0 0.0
2015-Jan-20 01:14N 29°46' E 122°04'0 0.0
2015-Jan-20 00:32N 29°46' E 122°04'0 0.0
2015-Jan-19 23:32N 29°46' E 122°04'0 0.0
2015-Jan-19 22:32N 29°46' E 122°04'0 0.0
2015-Jan-19 21:20N 29°46' E 122°04'0 0.0
2015-Jan-19 20:32N 29°46' E 122°04'0 0.0
2015-Jan-19 19:32N 29°46' E 122°04'0 0.0
2015-Jan-19 18:32N 29°46' E 122°04'0 0.0
2015-Jan-19 17:32N 29°46' E 122°04'0 0.0
2015-Jan-19 16:32N 29°46' E 122°04'0 0.0
2015-Jan-19 15:26N 29°46' E 122°04'0 0.0
2015-Jan-19 14:32N 29°46' E 122°04'0 0.0
2015-Jan-19 13:26N 29°46' E 122°04'0 0.0
2015-Jan-19 12:32N 29°46' E 122°04'0 0.0
2015-Jan-19 11:20N 29°46' E 122°04'0 0.0
2015-Jan-19 10:26N 29°46' E 122°04'0 0.0
2015-Jan-19 09:32N 29°46' E 122°04'0 0.0
2015-Jan-19 08:26N 29°46' E 122°04'0 0.0
2015-Jan-19 07:32N 29°46' E 122°04'0 0.0
2015-Jan-19 06:32N 29°46' E 122°04'0 0.0
2015-Jan-19 05:32N 29°46' E 122°04'0 0.0
2015-Jan-19 04:32N 29°46' E 122°04'0 0.0
2015-Jan-19 03:26N 29°46' E 122°04'0 0.0
2015-Jan-19 02:26N 29°46' E 122°04'0 0.0
2015-Jan-19 01:32N 29°46' E 122°04'0 0.0
2015-Jan-19 00:14N 29°46' E 122°04'0 0.0
2015-Jan-18 23:32N 29°46' E 122°04'0 0.0
2015-Jan-18 22:32N 29°46' E 122°04'0 0.0
2015-Jan-18 21:32N 29°46' E 122°04'0 0.0
2015-Jan-18 20:32N 29°46' E 122°04'0 0.0
2015-Jan-18 19:26N 29°46' E 122°04'0 0.0
2015-Jan-18 18:32N 29°46' E 122°04'0 0.0
2015-Jan-18 17:32N 29°46' E 122°04'0 0.0
2015-Jan-18 16:32N 29°46' E 122°04'0 0.0
2015-Jan-18 15:32N 29°46' E 122°04'0 0.0
2015-Jan-18 14:32N 29°46' E 122°04'0 0.0
2015-Jan-18 13:20N 29°46' E 122°04'0 0.0
2015-Jan-18 12:32N 29°46' E 122°04'0 0.0
2015-Jan-18 11:26N 29°46' E 122°04'0 0.0
2015-Jan-18 10:26N 29°46' E 122°04'0 0.0
2015-Jan-18 09:32N 29°46' E 122°04'0 0.0
2015-Jan-18 08:32N 29°46' E 122°04'0 0.0
2015-Jan-18 07:20N 29°46' E 122°04'0 0.0
2015-Jan-18 06:32N 29°46' E 122°04'0 0.0
2015-Jan-18 05:32N 29°46' E 122°04'0 0.0
2015-Jan-18 04:20N 29°46' E 122°04'0 0.0
2015-Jan-18 03:26N 29°46' E 122°04'0 0.0
2015-Jan-18 02:26N 29°46' E 122°04'0 0.0
2015-Jan-18 01:26N 29°46' E 122°04'0 0.0
2015-Jan-18 00:26N 29°46' E 122°04'0 0.0
2015-Jan-17 23:32N 29°46' E 122°04'0 0.0
2015-Jan-17 22:26N 29°46' E 122°04'0 0.0
2015-Jan-17 21:32N 29°46' E 122°04'0 0.0
2015-Jan-17 20:08N 29°46' E 122°04'0 0.0
2015-Jan-17 19:32N 29°46' E 122°04'0 0.0
2015-Jan-17 18:26N 29°46' E 122°04'0 0.0
2015-Jan-17 16:26N 29°46' E 122°04'0 0.0
2015-Jan-17 15:32N 29°46' E 122°04'0 0.0
2015-Jan-17 14:26N 29°46' E 122°04'0 0.0
2015-Jan-17 12:32N 29°46' E 122°04'0 0.0
2015-Jan-17 11:32N 29°46' E 122°04'0 0.0
2015-Jan-17 10:26N 29°46' E 122°04'0 0.0
2015-Jan-17 08:32N 29°46' E 122°04'0 0.0
2015-Jan-17 05:32N 29°46' E 122°04'0 0.0
2015-Jan-17 00:32N 29°46' E 122°04'0 0.0
2015-Jan-16 21:20N 29°46' E 122°04'0 0.0
2015-Jan-16 20:32N 29°46' E 122°04'0 0.0
2015-Jan-16 19:32N 29°46' E 122°04'0 0.0
2015-Jan-16 18:32N 29°46' E 122°04'0 0.0
2015-Jan-16 17:08N 29°46' E 122°04'0 0.0
2015-Jan-16 13:32N 29°46' E 122°04'  
Track history (hours):
 
Tides and Currents Weather Stations Pressure Air Temp Water Temp Dewpoint Dewpoint Depression Visibility Wind Speed Wind Dir Waves Ship Positions

Giewont

Last reported at 2015-Jan-26 12:33 UTC. Time now 2015-Jan-30 18:40 UTC.
Position N 29°51' E 122°46'.

Length 229 m; draft 6.3 m.

Type: Cargo ship. MMSI: 311029800.

Date/timePositionNaut miles runAvg speedWind from/ knotsBaromVisibWave heightAir tempDewpointWater temp
2015-Jan-26 12:33N 29°51' E 122°46'1110.9
2015-Jan-26 11:31N 29°47' E 122°34'1111.4
2015-Jan-26 10:33N 29°45' E 122°22'10 9.9
2015-Jan-26 09:33N 29°51' E 122°12'2 1.4
2015-Jan-26 08:19N 29°52' E 122°13'0 0.1
2015-Jan-26 06:19N 29°53' E 122°12'4 5.4
2015-Jan-26 05:33N 29°50' E 122°09'7 5.6
2015-Jan-26 04:22N 29°47' E 122°02'0 0.0
2015-Jan-26 02:16N 29°47' E 122°02'0 0.1
2015-Jan-26 01:28N 29°47' E 122°02'0 0.1
2015-Jan-26 00:28N 29°47' E 122°02'0 0.0
2015-Jan-25 23:10N 29°47' E 122°02'0 0.1
2015-Jan-25 20:10N 29°47' E 122°02'0 0.0
2015-Jan-25 17:10N 29°47' E 122°02'0 0.2
2015-Jan-25 16:10N 29°47' E 122°02'0 0.1
2015-Jan-25 15:10N 29°47' E 122°02'0 0.0
2015-Jan-25 13:04N 29°47' E 122°02'0 0.0
2015-Jan-25 11:16N 29°47' E 122°02'0 0.0
2015-Jan-25 10:10N 29°47' E 122°02'0 0.1
2015-Jan-25 09:22N 29°47' E 122°02'0 0.2
2015-Jan-25 08:16N 29°47' E 122°02'0 0.1
2015-Jan-25 07:22N 29°48' E 122°02'0 0.0
2015-Jan-25 05:28N 29°48' E 122°02'0 0.0
2015-Jan-25 03:17N 29°47' E 122°02'0 0.1
2015-Jan-25 02:10N 29°47' E 122°02'0 0.0
2015-Jan-24 23:04N 29°47' E 122°02'0 0.0
2015-Jan-24 21:22N 29°47' E 122°02'0 0.1
2015-Jan-24 18:10N 29°48' E 122°02'0 0.0
2015-Jan-24 15:10N 29°48' E 122°02'0 0.0
2015-Jan-24 14:04N 29°48' E 122°02'0 0.0
2015-Jan-24 12:22N 29°47' E 122°02'0 0.1
2015-Jan-24 11:10N 29°47' E 122°02'0 0.1
2015-Jan-24 10:28N 29°47' E 122°02'0 0.1
2015-Jan-24 09:04N 29°47' E 122°02'1 0.4
2015-Jan-24 06:32N 29°47' E 122°03'1 1.0
2015-Jan-24 05:26N 29°46' E 122°04'0 0.0
2015-Jan-24 04:15N 29°46' E 122°04'0 0.0
2015-Jan-24 03:32N 29°46' E 122°04'0 0.0
2015-Jan-24 02:09N 29°46' E 122°04'0 0.0
2015-Jan-24 01:33N 29°46' E 122°04'0 0.0
2015-Jan-24 00:27N 29°46' E 122°04'0 0.0
2015-Jan-23 23:32N 29°46' E 122°04'0 0.0
2015-Jan-23 22:26N 29°46' E 122°04'0 0.0
2015-Jan-23 21:32N 29°46' E 122°04'0 0.0
2015-Jan-23 20:20N 29°46' E 122°04'0 0.0
2015-Jan-23 19:32N 29°46' E 122°04'0 0.0
2015-Jan-23 18:32N 29°46' E 122°04'0 0.0
2015-Jan-23 17:32N 29°46' E 122°04'0 0.0
2015-Jan-23 16:32N 29°46' E 122°04'0 0.0
2015-Jan-23 15:32N 29°46' E 122°04'0 0.0
2015-Jan-23 14:32N 29°46' E 122°04'0 0.0
2015-Jan-23 13:32N 29°46' E 122°04'0 0.0
2015-Jan-23 12:32N 29°46' E 122°04'0 0.0
2015-Jan-23 11:26N 29°46' E 122°04'0 0.0
2015-Jan-23 10:32N 29°46' E 122°04'0 0.0
2015-Jan-23 09:26N 29°46' E 122°04'0 0.0
2015-Jan-23 08:27N 29°46' E 122°04'0 0.0
2015-Jan-23 07:32N 29°46' E 122°04'0 0.0
2015-Jan-23 06:20N 29°46' E 122°04'0 0.0
2015-Jan-23 05:33N 29°46' E 122°04'0 0.0
2015-Jan-23 04:32N 29°46' E 122°04'0 0.0
2015-Jan-23 02:26N 29°46' E 122°04'0 0.0
2015-Jan-23 01:14N 29°46' E 122°04'0 0.0
2015-Jan-23 00:14N 29°46' E 122°04'0 0.0
2015-Jan-22 23:26N 29°46' E 122°04'0 0.0
2015-Jan-22 22:32N 29°46' E 122°04'0 0.0
2015-Jan-22 21:20N 29°46' E 122°04'0 0.0
2015-Jan-22 20:32N 29°46' E 122°04'0 0.0
2015-Jan-22 19:26N 29°46' E 122°04'0 0.0
2015-Jan-22 18:32N 29°46' E 122°04'0 0.0
2015-Jan-22 17:32N 29°46' E 122°04'0 0.0
2015-Jan-22 16:32N 29°46' E 122°04'0 0.0
2015-Jan-22 15:32N 29°46' E 122°04'0 0.0
2015-Jan-22 14:26N 29°46' E 122°04'0 0.0
2015-Jan-22 13:26N 29°46' E 122°04'0 0.0
2015-Jan-22 12:26N 29°46' E 122°04'0 0.0
2015-Jan-22 11:32N 29°46' E 122°04'0 0.0
2015-Jan-22 10:20N 29°46' E 122°04'0 0.0
2015-Jan-22 09:32N 29°46' E 122°04'0 0.0
2015-Jan-22 08:32N 29°46' E 122°04'0 0.0
2015-Jan-22 07:26N 29°46' E 122°04'0 0.0
2015-Jan-22 06:32N 29°46' E 122°04'0 0.0
2015-Jan-22 05:26N 29°46' E 122°04'0 0.0
2015-Jan-22 04:20N 29°46' E 122°04'0 0.0
2015-Jan-22 03:32N 29°46' E 122°04'0 0.0
2015-Jan-22 02:32N 29°46' E 122°04'0 0.0
2015-Jan-22 01:32N 29°46' E 122°04'0 0.0
2015-Jan-22 00:32N 29°46' E 122°04'0 0.0
2015-Jan-21 23:32N 29°46' E 122°04'0 0.0
2015-Jan-21 22:32N 29°46' E 122°04'0 0.0
2015-Jan-21 21:32N 29°46' E 122°04'0 0.0
2015-Jan-21 20:26N 29°46' E 122°04'0 0.0
2015-Jan-21 19:32N 29°46' E 122°04'0 0.0
2015-Jan-21 18:32N 29°46' E 122°04'0 0.0
2015-Jan-21 17:32N 29°46' E 122°04'0 0.0
2015-Jan-21 16:32N 29°46' E 122°04'0 0.0
2015-Jan-21 15:32N 29°46' E 122°04'0 0.0
2015-Jan-21 14:32N 29°46' E 122°04'0 0.0
2015-Jan-21 13:26N 29°46' E 122°04'0 0.0
2015-Jan-21 12:26N 29°46' E 122°04'0 0.0
2015-Jan-21 11:32N 29°46' E 122°04'0 0.0
2015-Jan-21 10:20N 29°46' E 122°04'0 0.0
2015-Jan-21 09:32N 29°46' E 122°04'0 0.0
2015-Jan-21 08:26N 29°46' E 122°04'0 0.0
2015-Jan-21 07:20N 29°46' E 122°04'0 0.0
2015-Jan-21 06:26N 29°46' E 122°04'0 0.0
2015-Jan-21 05:32N 29°46' E 122°04'0 0.0
2015-Jan-21 04:08N 29°46' E 122°04'0 0.0
2015-Jan-21 03:32N 29°46' E 122°04'0 0.0
2015-Jan-21 02:32N 29°46' E 122°04'0 0.0
2015-Jan-21 01:32N 29°46' E 122°04'0 0.0
2015-Jan-21 00:26N 29°46' E 122°04'0 0.0
2015-Jan-20 23:32N 29°46' E 122°04'0 0.0
2015-Jan-20 22:14N 29°46' E 122°04'0 0.0
2015-Jan-20 21:26N 29°46' E 122°04'0 0.0
2015-Jan-20 20:26N 29°46' E 122°04'0 0.0
2015-Jan-20 19:32N 29°46' E 122°04'0 0.0
2015-Jan-20 18:32N 29°46' E 122°04'0 0.0
2015-Jan-20 17:26N 29°46' E 122°04'0 0.0
2015-Jan-20 16:32N 29°46' E 122°04'0 0.0
2015-Jan-20 15:32N 29°46' E 122°04'0 0.0
2015-Jan-20 14:26N 29°46' E 122°04'0 0.0
2015-Jan-20 13:14N 29°46' E 122°04'0 0.0
2015-Jan-20 12:32N 29°46' E 122°04'0 0.0
2015-Jan-20 11:32N 29°46' E 122°04'0 0.0
2015-Jan-20 10:32N 29°46' E 122°04'0 0.0
2015-Jan-20 09:26N 29°46' E 122°04'0 0.0
2015-Jan-20 08:32N 29°46' E 122°04'0 0.0
2015-Jan-20 07:26N 29°46' E 122°04'0 0.0
2015-Jan-20 06:32N 29°46' E 122°04'0 0.0
2015-Jan-20 05:32N 29°46' E 122°04'0 0.0
2015-Jan-20 04:26N 29°46' E 122°04'0 0.0
2015-Jan-20 03:26N 29°46' E 122°04'0 0.0
2015-Jan-20 02:32N 29°46' E 122°04'0 0.0
2015-Jan-20 01:14N 29°46' E 122°04'0 0.0
2015-Jan-20 00:32N 29°46' E 122°04'0 0.0
2015-Jan-19 23:32N 29°46' E 122°04'0 0.0
2015-Jan-19 22:32N 29°46' E 122°04'0 0.0
2015-Jan-19 21:20N 29°46' E 122°04'0 0.0
2015-Jan-19 20:32N 29°46' E 122°04'0 0.0
2015-Jan-19 19:32N 29°46' E 122°04'0 0.0
2015-Jan-19 18:32N 29°46' E 122°04'0 0.0
2015-Jan-19 17:32N 29°46' E 122°04'0 0.0
2015-Jan-19 16:32N 29°46' E 122°04'0 0.0
2015-Jan-19 15:26N 29°46' E 122°04'0 0.0
2015-Jan-19 14:32N 29°46' E 122°04'0 0.0
2015-Jan-19 13:26N 29°46' E 122°04'0 0.0
2015-Jan-19 12:32N 29°46' E 122°04'0 0.0
2015-Jan-19 11:20N 29°46' E 122°04'0 0.0
2015-Jan-19 10:26N 29°46' E 122°04'0 0.0
2015-Jan-19 09:32N 29°46' E 122°04'0 0.0
2015-Jan-19 08:26N 29°46' E 122°04'0 0.0
2015-Jan-19 07:32N 29°46' E 122°04'0 0.0
2015-Jan-19 06:32N 29°46' E 122°04'0 0.0
2015-Jan-19 05:32N 29°46' E 122°04'0 0.0
2015-Jan-19 04:32N 29°46' E 122°04'0 0.0
2015-Jan-19 03:26N 29°46' E 122°04'0 0.0
2015-Jan-19 02:26N 29°46' E 122°04'0 0.0
2015-Jan-19 01:32N 29°46' E 122°04'0 0.0
2015-Jan-19 00:14N 29°46' E 122°04'0 0.0
2015-Jan-18 23:32N 29°46' E 122°04'0 0.0
2015-Jan-18 22:32N 29°46' E 122°04'0 0.0
2015-Jan-18 21:32N 29°46' E 122°04'0 0.0
2015-Jan-18 20:32N 29°46' E 122°04'0 0.0
2015-Jan-18 19:26N 29°46' E 122°04'0 0.0
2015-Jan-18 18:32N 29°46' E 122°04'0 0.0
2015-Jan-18 17:32N 29°46' E 122°04'0 0.0
2015-Jan-18 16:32N 29°46' E 122°04'0 0.0
2015-Jan-18 15:32N 29°46' E 122°04'0 0.0
2015-Jan-18 14:32N 29°46' E 122°04'0 0.0
2015-Jan-18 13:20N 29°46' E 122°04'0 0.0
2015-Jan-18 12:32N 29°46' E 122°04'0 0.0
2015-Jan-18 11:26N 29°46' E 122°04'0 0.0
2015-Jan-18 10:26N 29°46' E 122°04'0 0.0
2015-Jan-18 09:32N 29°46' E 122°04'0 0.0
2015-Jan-18 08:32N 29°46' E 122°04'0 0.0
2015-Jan-18 07:20N 29°46' E 122°04'0 0.0
2015-Jan-18 06:32N 29°46' E 122°04'0 0.0
2015-Jan-18 05:32N 29°46' E 122°04'0 0.0
2015-Jan-18 04:20N 29°46' E 122°04'0 0.0
2015-Jan-18 03:26N 29°46' E 122°04'0 0.0
2015-Jan-18 02:26N 29°46' E 122°04'0 0.0
2015-Jan-18 01:26N 29°46' E 122°04'0 0.0
2015-Jan-18 00:26N 29°46' E 122°04'0 0.0
2015-Jan-17 23:32N 29°46' E 122°04'0 0.0
2015-Jan-17 22:26N 29°46' E 122°04'0 0.0
2015-Jan-17 21:32N 29°46' E 122°04'0 0.0
2015-Jan-17 20:08N 29°46' E 122°04'0 0.0
2015-Jan-17 19:32N 29°46' E 122°04'0 0.0
2015-Jan-17 18:26N 29°46' E 122°04'0 0.0
2015-Jan-17 16:26N 29°46' E 122°04'0 0.0
2015-Jan-17 15:32N 29°46' E 122°04'0 0.0
2015-Jan-17 14:26N 29°46' E 122°04'0 0.0
2015-Jan-17 12:32N 29°46' E 122°04'0 0.0
2015-Jan-17 11:32N 29°46' E 122°04'0 0.0
2015-Jan-17 10:26N 29°46' E 122°04'0 0.0
2015-Jan-17 08:32N 29°46' E 122°04'0 0.0
2015-Jan-17 05:32N 29°46' E 122°04'0 0.0
2015-Jan-17 00:32N 29°46' E 122°04'0 0.0
2015-Jan-16 21:20N 29°46' E 122°04'0 0.0
2015-Jan-16 20:32N 29°46' E 122°04'0 0.0
2015-Jan-16 19:32N 29°46' E 122°04'0 0.0
2015-Jan-16 18:32N 29°46' E 122°04'0 0.0
2015-Jan-16 17:08N 29°46' E 122°04'0 0.0
2015-Jan-16 13:32N 29°46' E 122°04'  

Dump ship's entire track history